createdAt,value
2019-01-20T09:50:59.690Z,101.18
2019-01-20T09:53:27.687Z,154.23
2019-01-20T09:55:56.342Z,162.20
2019-01-20T09:58:24.341Z,163.80
2019-01-20T10:00:52.387Z,166.73
2019-01-20T10:03:20.720Z,170.90
2019-01-20T10:05:48.929Z,178.53
2019-01-20T10:08:19.277Z,173.87
2019-01-20T10:10:47.016Z,179.30
2019-01-20T10:13:15.005Z,173.13
2019-01-20T10:15:43.054Z,176.60
2019-01-20T10:18:11.034Z,176.63
2019-01-20T10:20:39.127Z,180.97
2019-01-20T10:23:07.138Z,170.03
2019-01-20T10:25:35.107Z,168.97
2019-01-20T10:28:03.236Z,162.43
2019-01-20T10:30:32.842Z,175.73
2019-01-20T10:33:00.957Z,168.33
2019-01-20T10:35:33.531Z,165.93
2019-01-20T10:38:05.740Z,166.10
2019-01-20T10:40:34.716Z,172.27
2019-01-20T10:43:02.814Z,165.60
2019-01-20T10:45:31.295Z,160.33
2019-01-20T10:48:01.354Z,160.13
2019-01-20T10:50:29.646Z,156.40
2019-01-20T10:52:57.982Z,159.50
2019-01-20T10:55:26.136Z,159.27
2019-01-20T10:57:54.422Z,160.77
2019-01-20T11:00:23.895Z,168.57
2019-01-20T11:02:51.955Z,165.87
2019-01-20T11:05:25.126Z,159.97
2019-01-20T11:07:49.617Z,148.23
2019-01-20T11:10:21.977Z,147.50
2019-01-20T11:12:49.367Z,147.40
2019-01-20T11:15:17.530Z,150.93
2019-01-20T11:17:45.534Z,147.70
2019-01-20T12:36:32.481Z,148.20
2019-01-20T12:39:20.716Z,140.30
2019-01-20T12:41:48.813Z,134.10
2019-01-20T12:44:18.097Z,127.12
2019-01-20T12:46:46.478Z,126.62
2019-01-20T12:49:14.504Z,128.07
2019-01-20T12:51:42.568Z,119.37
2019-01-20T12:54:11.294Z,119.60
2019-01-20T12:56:39.674Z,126.05
2019-01-20T12:59:07.661Z,109.50
2019-01-20T13:01:36.438Z,114.25
2019-01-20T13:04:04.570Z,105.35
2019-01-20T13:06:32.886Z,103.47
2019-01-20T13:09:01.037Z,96.92
2019-01-20T13:11:29.339Z,103.92
2019-01-20T13:13:57.459Z,98.22
2019-01-20T13:16:25.582Z,94.37
2019-01-20T13:18:53.860Z,93.87
2019-01-20T13:21:22.963Z,88.52
2019-01-20T13:23:51.026Z,89.13
2019-01-20T13:26:20.597Z,84.22
2019-01-20T13:28:48.826Z,89.58
2019-01-20T13:31:19.768Z,90.20
2019-01-20T13:33:51.505Z,89.72
2019-01-20T13:36:19.541Z,87.82
2019-01-20T13:38:47.595Z,87.72
2019-01-20T13:41:15.672Z,86.20
2019-01-20T13:43:43.793Z,88.72
2019-01-20T13:46:12.176Z,82.40
2019-01-20T13:48:40.148Z,83.97
2019-01-20T13:51:08.335Z,75.08
2019-01-20T13:53:36.539Z,82.00
2019-01-20T13:56:05.079Z,78.67
2019-01-20T13:58:33.048Z,79.15
2019-01-20T14:01:01.012Z,78.52
2019-01-20T14:03:29.184Z,75.83
2019-01-20T14:05:57.360Z,71.92
2019-01-20T14:08:25.384Z,79.25
2019-01-20T14:10:55.138Z,77.12
2019-01-20T14:13:23.425Z,78.20
2019-01-20T14:15:51.494Z,75.97
2019-01-20T14:18:19.879Z,76.22
2019-01-20T14:20:48.057Z,75.47
2019-01-20T14:23:16.125Z,76.82
2019-01-20T14:25:44.192Z,78.28
2019-01-20T14:28:12.261Z,75.62
2019-01-20T14:30:40.437Z,83.00
2019-01-20T14:33:10.455Z,81.63
2019-01-20T14:35:38.433Z,79.90
2019-01-20T14:38:10.590Z,75.20
2019-01-20T14:40:38.873Z,82.82
2019-01-20T14:43:07.354Z,77.32
2019-01-20T14:45:36.245Z,79.53
2019-01-20T14:48:04.619Z,77.35
2019-01-20T14:50:32.693Z,76.87
2019-01-20T14:53:03.670Z,85.80
2019-01-20T14:55:32.772Z,92.00
2019-01-20T14:58:00.756Z,88.65
2019-01-20T15:00:36.194Z,98.70
2019-01-20T15:03:04.542Z,106.80
2019-01-20T15:05:34.402Z,115.57
2019-01-20T15:08:02.818Z,103.95
2019-01-20T15:10:30.847Z,101.90
2019-01-20T15:12:58.901Z,101.22
2019-01-20T15:15:28.473Z,98.45
2019-01-20T15:17:56.638Z,98.22
2019-01-20T15:20:25.022Z,93.85
2019-01-20T15:22:53.501Z,96.72
2019-01-20T15:25:22.535Z,89.13
2019-01-20T15:27:50.768Z,94.95
2019-01-20T15:30:20.476Z,92.30
2019-01-20T15:32:48.757Z,96.35
2019-01-20T15:35:16.782Z,86.72
2019-01-20T15:37:44.749Z,86.90
2019-01-20T15:40:14.777Z,90.10
2019-01-20T15:42:42.887Z,98.05
2019-01-20T15:45:16.358Z,94.47
2019-01-20T15:47:42.206Z,91.92
2019-01-20T15:50:12.019Z,87.47
2019-01-20T15:52:40.398Z,88.62
2019-01-20T15:55:08.946Z,93.95
2019-01-20T15:57:38.664Z,92.90
2019-01-20T16:00:08.410Z,95.42
2019-01-20T16:02:36.683Z,96.15
2019-01-20T16:05:05.520Z,91.40
2019-01-20T16:07:34.426Z,95.28
2019-01-20T16:10:02.486Z,88.52
2019-01-20T16:12:30.894Z,95.60
2019-01-20T16:14:59.502Z,89.22
2019-01-20T16:17:27.472Z,94.42
2019-01-20T16:19:56.073Z,95.12
2019-01-20T16:22:24.228Z,93.22
2019-01-20T16:24:52.298Z,98.62
2019-01-20T16:27:22.317Z,99.37
2019-01-20T16:29:50.391Z,96.37
2019-01-20T16:32:18.663Z,97.82
2019-01-20T16:34:46.653Z,102.85
2019-01-20T16:37:14.607Z,105.67
2019-01-20T16:39:45.688Z,107.70
2019-01-20T16:42:12.898Z,110.35
2019-01-20T16:44:41.077Z,109.80
2019-01-20T16:47:09.250Z,116.88
2019-01-20T16:49:37.945Z,113.47
2019-01-20T16:52:10.761Z,117.50
2019-01-20T16:54:38.933Z,115.12
2019-01-20T16:57:06.969Z,111.70
2019-01-20T16:59:34.958Z,117.75
2019-01-20T17:02:03.109Z,111.20
2019-01-20T17:04:31.385Z,111.20
2019-01-20T17:06:59.762Z,110.72
2019-01-20T17:09:27.848Z,112.12
2019-01-20T17:11:56.205Z,112.05
2019-01-20T17:14:24.574Z,109.92
2019-01-20T17:16:52.654Z,106.90
2019-01-20T17:19:21.034Z,108.22
2019-01-20T17:21:49.206Z,108.07
2019-01-20T17:24:18.355Z,102.75
2019-01-20T17:26:46.352Z,104.60
2019-01-20T17:29:14.318Z,99.62
2019-01-20T17:31:42.416Z,100.95
2019-01-20T17:34:10.407Z,99.58
2019-01-20T17:36:38.443Z,101.75
2019-01-20T17:39:11.899Z,95.70
2019-01-20T17:41:37.187Z,92.35
2019-01-20T17:44:05.457Z,87.05
2019-01-20T17:46:33.817Z,88.40
2019-01-20T17:49:01.851Z,90.30
2019-01-20T17:51:31.037Z,82.30
2019-01-20T17:53:59.569Z,84.95
2019-01-20T17:56:27.950Z,86.53
2019-01-20T17:58:56.274Z,87.50
2019-01-20T18:01:24.304Z,80.28
2019-01-20T18:03:52.691Z,82.97
2019-01-20T18:06:20.771Z,82.02
2019-01-20T18:08:48.921Z,75.22
2019-01-20T18:11:17.322Z,79.95
2019-01-20T18:13:45.292Z,77.32
2019-01-20T18:16:13.368Z,75.08
2019-01-20T18:18:41.347Z,82.95
2019-01-20T18:21:09.310Z,78.05
2019-01-20T18:23:37.377Z,76.40
2019-01-20T18:26:05.355Z,80.90
2019-01-20T18:28:33.418Z,77.70
2019-01-20T18:31:01.566Z,79.65
2019-01-20T18:33:29.957Z,79.82
2019-01-20T18:35:57.945Z,77.22
2019-01-20T18:38:25.894Z,80.47
2019-01-20T18:40:54.030Z,79.10
2019-01-20T18:43:22.226Z,74.72
2019-01-20T18:45:50.272Z,75.92
2019-01-20T18:48:18.384Z,75.85
2019-01-20T18:50:46.538Z,75.65
2019-01-20T18:53:14.557Z,75.05
2019-01-20T18:55:42.830Z,74.97
2019-01-20T18:58:11.590Z,75.95
2019-01-20T19:00:43.584Z,77.72
2019-01-20T19:03:11.638Z,83.55
2019-01-20T19:05:39.622Z,74.00
2019-01-20T19:08:07.695Z,74.82
2019-01-20T19:10:35.651Z,77.30
2019-01-20T19:13:04.114Z,80.67
2019-01-20T19:15:32.394Z,73.95
2019-01-20T19:18:00.378Z,76.12
2019-01-20T19:20:28.842Z,74.47
2019-01-20T19:22:58.571Z,77.65
2019-01-20T19:25:27.135Z,79.07
2019-01-20T19:27:55.149Z,78.10
2019-01-20T19:30:24.818Z,79.30
2019-01-20T19:32:52.987Z,75.08
2019-01-20T19:35:21.083Z,82.67
2019-01-20T19:37:49.279Z,81.70
2019-01-20T19:40:17.430Z,79.50
2019-01-20T19:42:45.546Z,83.30
2019-01-20T19:45:15.053Z,80.75
2019-01-20T19:47:42.976Z,86.15
2019-01-20T19:50:12.404Z,81.90
2019-01-20T19:52:40.541Z,77.85
2019-01-20T19:55:10.178Z,79.67
2019-01-20T19:57:40.659Z,79.30
2019-01-20T20:00:10.401Z,78.78
2019-01-20T20:02:39.892Z,78.37
2019-01-20T20:05:09.728Z,83.70
2019-01-20T20:07:37.880Z,78.72
2019-01-20T20:10:09.380Z,81.85
2019-01-20T20:12:37.599Z,87.72
2019-01-20T20:15:10.259Z,81.87
2019-01-20T20:17:38.329Z,75.78
2019-01-20T20:20:08.108Z,82.17
2019-01-20T20:22:36.090Z,83.35
2019-01-20T20:25:04.794Z,82.90
2019-01-20T20:27:33.224Z,82.80
2019-01-20T20:30:01.307Z,78.65
2019-01-20T20:32:29.444Z,83.78
2019-01-20T20:34:59.568Z,79.85
2019-01-20T20:37:28.181Z,84.85
2019-01-20T20:39:57.222Z,82.53
2019-01-20T20:42:27.122Z,84.13
2019-01-20T20:44:56.881Z,80.55
2019-01-20T20:47:26.812Z,87.35
2019-01-20T20:49:54.871Z,82.88
2019-01-20T20:52:23.135Z,79.85
2019-01-20T20:54:51.227Z,81.87
2019-01-20T20:57:19.190Z,82.67
2019-01-20T20:59:49.205Z,165.52
2019-01-20T21:02:17.237Z,111.35
2019-01-20T21:04:45.363Z,99.77
2019-01-20T21:07:15.876Z,98.35
2019-01-20T21:09:44.050Z,96.70
2019-01-20T21:12:13.868Z,90.57
2019-01-20T21:14:43.857Z,89.10
2019-01-20T21:17:11.661Z,91.10
